Time;durP1;ratioP1;P1;durP2;ratioP2;P2;SDS_P1;SDS_P2;PMS_P1;PMS_P2;Temp;Humidity;BMP_temperature;BMP_pressure;BME280_temperature;BME280_humidity;BME280_pressure;Samples;Min_cycle;Max_cycle;Signal;HPM_P1;HPM_P2
2022/11/30 00:01:16;;;;;;;35.50;26.73;;;6.80;99.90;;;;;;5072577;28;36968;-78
2022/11/30 00:03:42;;;;;;;30.70;24.83;;;6.70;99.90;;;;;;5043564;28;38827;-78
2022/11/30 00:06:11;;;;;;;23.23;19.27;;;6.70;99.90;;;;;;5048652;28;37710;-79
2022/11/30 00:08:38;;;;;;;41.37;28.97;;;6.60;99.90;;;;;;5042269;28;37375;-79
2022/11/30 00:11:12;;;;;;;33.00;25.93;;;6.60;99.90;;;;;;5041563;28;38735;-79
2022/11/30 00:13:38;;;;;;;33.07;24.80;;;6.60;99.90;;;;;;5034183;28;48511;-79
2022/11/30 00:16:05;;;;;;;37.30;27.03;;;6.60;99.90;;;;;;5042193;28;38519;-79
2022/11/30 00:18:31;;;;;;;31.23;24.67;;;6.60;99.90;;;;;;5043734;27;49094;-80
2022/11/30 00:21:01;;;;;;;32.33;27.10;;;6.60;99.90;;;;;;5019288;28;39946;-80
2022/11/30 00:23:35;;;;;;;21.97;18.50;;;6.60;99.90;;;;;;5015150;27;39411;-79
2022/11/30 00:26:03;;;;;;;28.57;21.97;;;6.60;99.90;;;;;;5026331;28;36085;-79
2022/11/30 00:28:31;;;;;;;30.50;24.90;;;6.50;99.90;;;;;;5039967;28;39422;-79
2022/11/30 00:31:01;;;;;;;31.43;24.73;;;6.40;99.90;;;;;;5038137;28;37606;-79
2022/11/30 00:33:28;;;;;;;40.27;29.23;;;6.30;99.90;;;;;;5039025;28;37235;-79
2022/11/30 00:36:00;;;;;;;35.37;26.23;;;6.30;99.90;;;;;;5075984;28;37030;-79
2022/11/30 00:38:26;;;;;;;26.43;21.70;;;6.10;99.90;;;;;;5039573;28;37217;-80
2022/11/30 00:40:52;;;;;;;28.87;22.60;;;6.00;99.90;;;;;;5040345;28;38287;-79
2022/11/30 00:43:18;;;;;;;27.43;21.47;;;6.00;99.90;;;;;;5048014;28;38652;-79
2022/11/30 00:45:45;;;;;;;21.00;18.40;;;6.00;99.90;;;;;;5048554;28;37361;-80
2022/11/30 00:48:11;;;;;;;32.90;23.17;;;5.90;99.90;;;;;;5039949;28;36484;-79
2022/11/30 00:50:37;;;;;;;23.93;19.50;;;6.00;99.90;;;;;;5068815;28;39166;-79
2022/11/30 00:53:03;;;;;;;19.93;17.60;;;6.00;99.90;;;;;;5041796;28;38428;-79
2022/11/30 00:55:31;;;;;;;27.30;22.60;;;6.10;99.90;;;;;;5033803;28;38079;-80
2022/11/30 00:57:57;;;;;;;27.93;23.47;;;6.10;99.90;;;;;;5070059;27;36240;-79
2022/11/30 01:00:24;;;;;;;28.47;23.47;;;6.20;99.90;;;;;;5041750;28;37137;-78
2022/11/30 01:02:58;;;;;;;23.93;20.10;;;6.20;99.90;;;;;;5042580;28;40071;-79
2022/11/30 01:05:26;;;;;;;24.93;20.30;;;6.30;99.90;;;;;;5046328;28;38648;-80
2022/11/30 01:07:52;;;;;;;28.00;22.47;;;6.30;99.90;;;;;;5046687;28;37429;-79
2022/11/30 01:10:18;;;;;;;28.60;23.10;;;6.40;99.90;;;;;;5044804;28;38584;-80
2022/11/30 01:12:44;;;;;;;30.07;24.60;;;6.40;99.90;;;;;;5043289;28;39087;-81
2022/11/30 01:15:11;;;;;;;32.60;23.20;;;6.30;99.90;;;;;;5035944;27;35038;-80
2022/11/30 01:17:37;;;;;;;31.10;23.73;;;6.40;99.90;;;;;;5040609;28;37764;-79
2022/11/30 01:20:04;;;;;;;37.37;26.40;;;6.30;99.90;;;;;;5040288;27;38210;-80
2022/11/30 01:22:30;;;;;;;36.53;25.17;;;6.20;99.90;;;;;;5033504;28;47585;-80
2022/11/30 01:24:56;;;;;;;32.50;22.53;;;6.10;99.90;;;;;;5034206;28;36861;-80
2022/11/30 01:27:23;;;;;;;20.13;17.47;;;6.10;99.90;;;;;;5042382;28;36921;-79
2022/11/30 01:29:49;;;;;;;20.90;17.13;;;6.00;99.90;;;;;;5039208;28;39997;-79
2022/11/30 01:32:15;;;;;;;30.00;20.87;;;6.10;99.90;;;;;;5038239;28;37666;-79
2022/11/30 01:34:41;;;;;;;18.97;16.73;;;6.00;99.90;;;;;;5042352;28;37742;-78
2022/11/30 01:37:07;;;;;;;32.10;23.53;;;5.90;99.90;;;;;;5035104;27;37393;-79
2022/11/30 01:39:33;;;;;;;28.73;21.97;;;5.90;99.90;;;;;;5038538;27;35681;-79
2022/11/30 01:41:59;;;;;;;35.27;24.67;;;5.80;99.90;;;;;;5017753;28;37947;-80
2022/11/30 01:44:26;;;;;;;38.43;24.27;;;5.80;99.90;;;;;;5020820;28;35396;-79
2022/11/30 01:47:02;;;;;;;30.77;24.00;;;5.80;99.90;;;;;;5031487;28;38046;-80
2022/11/30 01:49:43;;;;;;;35.03;24.37;;;5.80;99.90;;;;;;5031521;28;46967;-79
2022/11/30 01:52:20;;;;;;;25.73;20.77;;;5.90;99.90;;;;;;5038197;28;37511;-79
2022/11/30 01:55:02;;;;;;;33.73;22.67;;;5.80;99.90;;;;;;5035053;27;37663;-79
2022/11/30 01:57:46;;;;;;;34.47;24.63;;;5.80;99.90;;;;;;5070493;28;36635;-78
2022/11/30 02:03:10;;;;;;;;;;;5.80;99.90;;;;;;5269160;22;20054;-76
2022/11/30 02:05:38;;;;;;;23.57;19.07;;;5.80;99.90;;;;;;5022126;28;36454;-75
2022/11/30 02:08:07;;;;;;;24.50;20.90;;;5.80;99.90;;;;;;5004066;28;35496;-75
2022/11/30 02:10:39;;;;;;;26.13;21.40;;;5.80;99.90;;;;;;5011052;28;37839;-76
2022/11/30 02:13:30;;;;;;;21.40;18.67;;;5.90;99.90;;;;;;5008082;28;39884;-76
2022/11/30 02:16:14;;;;;;;31.07;23.30;;;5.90;99.90;;;;;;5013381;28;38009;-75
2022/11/30 02:19:12;;;;;;;22.77;16.97;;;5.90;99.90;;;;;;5004812;28;47143;-76
2022/11/30 02:21:55;;;;;;;32.73;23.47;;;6.00;99.90;;;;;;5017217;28;48838;-76
2022/11/30 02:25:01;;;;;;;28.93;22.37;;;6.00;99.90;;;;;;5007388;28;39834;-76
2022/11/30 02:27:54;;;;;;;36.57;24.70;;;6.00;99.90;;;;;;5023600;28;37432;-76
2022/11/30 02:30:22;;;;;;;28.40;21.57;;;6.00;99.90;;;;;;5023167;28;37515;-76
2022/11/30 02:33:07;;;;;;;25.07;21.50;;;6.00;99.90;;;;;;4999399;28;37500;-76
2022/11/30 02:35:36;;;;;;;31.57;22.63;;;6.00;99.90;;;;;;5005735;28;47081;-75
2022/11/30 02:38:03;;;;;;;29.27;23.20;;;6.00;99.90;;;;;;5007184;28;37808;-75
2022/11/30 02:40:30;;;;;;;33.57;24.07;;;6.10;99.90;;;;;;5010479;28;37227;-76
2022/11/30 02:42:59;;;;;;;28.80;22.30;;;6.10;99.90;;;;;;5010012;28;37798;-76
2022/11/30 02:45:47;;;;;;;33.30;24.00;;;6.10;99.90;;;;;;5006152;28;38272;-76
2022/11/30 02:48:18;;;;;;;28.80;21.83;;;6.20;99.90;;;;;;5008416;28;36801;-76
2022/11/30 02:50:52;;;;;;;29.37;22.13;;;6.20;99.90;;;;;;5012490;28;38623;-76
2022/11/30 02:53:18;;;;;;;26.90;20.53;;;6.20;99.90;;;;;;5009549;28;40005;-75
2022/11/30 02:55:44;;;;;;;29.77;23.47;;;6.20;99.90;;;;;;5025257;28;37181;-75
2022/11/30 02:58:12;;;;;;;26.27;21.07;;;6.20;99.90;;;;;;5008571;28;36552;-75
2022/11/30 03:00:38;;;;;;;26.77;20.53;;;6.30;99.90;;;;;;5006913;28;37286;-75
2022/11/30 03:03:05;;;;;;;19.60;16.77;;;6.30;99.90;;;;;;5009681;28;38566;-76
2022/11/30 03:05:31;;;;;;;27.57;21.43;;;6.30;99.90;;;;;;5004618;28;38504;-75
2022/11/30 03:07:57;;;;;;;30.03;19.27;;;6.40;99.90;;;;;;5010231;28;39349;-76
2022/11/30 03:10:23;;;;;;;26.90;19.73;;;6.40;99.90;;;;;;5009147;28;37227;-75
2022/11/30 03:12:50;;;;;;;34.80;22.53;;;6.40;99.90;;;;;;5008450;28;39220;-76
2022/11/30 03:15:16;;;;;;;17.33;15.53;;;6.40;99.90;;;;;;5006347;28;37313;-76
2022/11/30 03:17:42;;;;;;;23.10;18.77;;;6.40;99.90;;;;;;5007037;28;37420;-75
2022/11/30 03:20:08;;;;;;;20.77;17.00;;;6.40;99.90;;;;;;5005986;28;36993;-75
2022/11/30 03:22:34;;;;;;;20.67;17.07;;;6.40;99.90;;;;;;5006473;28;37659;-75
2022/11/30 03:25:00;;;;;;;23.33;18.33;;;6.30;99.90;;;;;;5006691;28;37812;-76
2022/11/30 03:27:26;;;;;;;19.47;15.77;;;6.30;99.90;;;;;;5005591;28;37614;-75
2022/11/30 03:29:53;;;;;;;22.43;17.97;;;6.20;99.90;;;;;;5001834;28;39874;-75
2022/11/30 03:32:19;;;;;;;28.37;19.40;;;6.20;99.90;;;;;;5001429;28;37838;-75
2022/11/30 03:34:45;;;;;;;42.77;25.47;;;6.20;99.90;;;;;;4998645;28;37320;-75
2022/11/30 03:37:11;;;;;;;33.20;23.90;;;6.20;99.90;;;;;;5002104;28;38124;-75
2022/11/30 03:39:37;;;;;;;21.57;18.67;;;6.30;99.90;;;;;;5002702;28;36717;-75
2022/11/30 03:42:03;;;;;;;21.23;18.07;;;6.20;99.90;;;;;;5002164;28;39853;-75
2022/11/30 03:44:30;;;;;;;24.63;20.17;;;6.20;99.90;;;;;;5018346;28;36414;-75
2022/11/30 03:46:56;;;;;;;32.13;22.83;;;6.20;99.90;;;;;;5016093;28;36845;-75
2022/11/30 03:49:22;;;;;;;20.23;17.10;;;6.30;99.90;;;;;;5001594;28;38352;-76
2022/11/30 03:51:48;;;;;;;22.27;17.53;;;6.30;99.90;;;;;;5006461;28;39219;-75
2022/11/30 03:54:14;;;;;;;29.23;24.00;;;6.30;99.90;;;;;;5001880;28;38080;-75
2022/11/30 03:56:40;;;;;;;23.87;21.20;;;6.30;99.90;;;;;;4994902;28;37680;-75
2022/11/30 03:59:06;;;;;;;32.13;26.20;;;6.30;99.90;;;;;;5002549;28;37688;-75
2022/11/30 04:01:32;;;;;;;25.40;21.47;;;6.30;99.90;;;;;;5015336;28;37652;-76
2022/11/30 04:03:58;;;;;;;31.37;24.10;;;6.30;99.90;;;;;;5000875;28;36865;-75
2022/11/30 04:06:27;;;;;;;28.23;23.60;;;6.30;99.90;;;;;;5015938;28;37302;-75
2022/11/30 04:08:54;;;;;;;34.43;25.87;;;6.30;99.90;;;;;;5001950;28;36264;-75
2022/11/30 04:11:20;;;;;;;24.63;19.97;;;6.40;99.90;;;;;;5000766;28;36512;-75
2022/11/30 04:13:46;;;;;;;26.60;22.10;;;6.30;99.90;;;;;;5008064;28;37968;-75
2022/11/30 04:16:12;;;;;;;28.97;23.20;;;6.30;99.90;;;;;;5019063;28;36883;-76
2022/11/30 04:18:38;;;;;;;23.47;19.17;;;6.30;99.90;;;;;;5003647;28;37425;-76
2022/11/30 04:21:06;;;;;;;30.27;24.23;;;6.30;99.90;;;;;;4997943;28;37820;-76
2022/11/30 04:23:38;;;;;;;33.07;24.27;;;6.20;99.90;;;;;;5014643;28;46943;-75
2022/11/30 04:26:06;;;;;;;33.55;24.27;;;6.20;99.90;;;;;;5003256;28;38822;-76
2022/11/30 04:28:32;;;;;;;28.73;21.37;;;6.20;99.90;;;;;;5004036;28;48277;-75
2022/11/30 04:30:59;;;;;;;31.53;23.77;;;6.10;99.90;;;;;;5010598;28;38131;-75
2022/11/30 04:33:26;;;;;;;30.17;22.77;;;5.90;99.90;;;;;;5011814;28;38713;-75
2022/11/30 04:35:55;;;;;;;20.63;18.43;;;5.80;99.90;;;;;;5008302;28;36648;-74
2022/11/30 04:38:22;;;;;;;20.17;17.43;;;5.60;99.90;;;;;;5007621;28;37367;-75
2022/11/30 04:40:48;;;;;;;18.10;15.37;;;5.50;99.90;;;;;;5007380;28;39119;-75
2022/11/30 04:43:15;;;;;;;21.93;16.00;;;5.50;99.90;;;;;;5004375;28;38728;-75
2022/11/30 04:45:43;;;;;;;32.57;21.70;;;5.40;99.90;;;;;;5004041;28;37806;-75
2022/11/30 04:48:09;;;;;;;42.60;21.30;;;5.50;99.90;;;;;;5005055;28;37377;-75
2022/11/30 04:50:36;;;;;;;79.33;25.30;;;5.50;99.90;;;;;;5004653;28;37538;-75
2022/11/30 04:53:02;;;;;;;24.10;15.80;;;5.50;99.90;;;;;;5011500;28;37266;-75
2022/11/30 04:55:28;;;;;;;71.50;22.13;;;5.50;99.90;;;;;;5011347;28;49039;-75
2022/11/30 04:57:54;;;;;;;25.77;19.83;;;5.60;99.90;;;;;;5011771;28;36349;-75
2022/11/30 05:00:21;;;;;;;78.73;21.63;;;5.60;99.90;;;;;;5021212;28;37546;-75
2022/11/30 05:02:47;;;;;;;69.33;15.53;;;5.50;99.90;;;;;;5007357;28;37142;-75
2022/11/30 05:05:15;;;;;;;91.53;18.73;;;5.50;99.90;;;;;;5025533;28;38354;-75
2022/11/30 05:07:41;;;;;;;33.33;14.67;;;5.40;99.90;;;;;;5016893;28;37294;-75
2022/11/30 05:10:08;;;;;;;23.10;13.33;;;5.40;99.90;;;;;;5005433;28;38043;-75
2022/11/30 05:12:35;;;;;;;30.83;13.87;;;5.30;99.90;;;;;;5013488;28;38168;-75
2022/11/30 05:15:01;;;;;;;14.03;12.67;;;5.30;99.90;;;;;;5013899;28;38546;-75
2022/11/30 05:17:27;;;;;;;32.30;17.57;;;5.30;99.90;;;;;;5003892;28;35909;-75
2022/11/30 05:19:53;;;;;;;66.27;16.83;;;5.30;99.90;;;;;;5007007;28;37527;-75
2022/11/30 05:22:20;;;;;;;26.87;14.90;;;5.40;99.90;;;;;;5029096;28;37399;-75
2022/11/30 05:24:46;;;;;;;19.07;16.83;;;5.40;99.90;;;;;;5011982;28;37366;-76
2022/11/30 05:27:12;;;;;;;15.87;13.57;;;5.40;99.90;;;;;;5006365;28;35925;-75
2022/11/30 05:29:38;;;;;;;13.67;12.27;;;5.50;99.90;;;;;;5008270;28;39445;-76
2022/11/30 05:32:04;;;;;;;15.50;14.00;;;5.50;99.90;;;;;;5004446;28;36795;-75
2022/11/30 05:34:30;;;;;;;29.47;14.73;;;5.50;99.90;;;;;;5005593;28;37838;-76
2022/11/30 05:36:56;;;;;;;43.00;18.47;;;5.40;99.90;;;;;;5013812;28;36170;-76
2022/11/30 05:39:22;;;;;;;32.90;14.77;;;5.50;99.90;;;;;;5008651;28;39231;-76
2022/11/30 05:41:48;;;;;;;18.57;14.57;;;5.50;99.90;;;;;;5010485;28;38350;-75
2022/11/30 05:44:14;;;;;;;18.03;16.23;;;5.50;99.90;;;;;;5009122;28;36950;-75
2022/11/30 05:46:40;;;;;;;56.47;20.47;;;5.50;99.90;;;;;;5007928;28;36295;-76
2022/11/30 05:49:06;;;;;;;15.67;13.87;;;5.50;99.90;;;;;;5022072;28;38011;-75
2022/11/30 05:51:37;;;;;;;19.63;17.27;;;5.40;99.90;;;;;;5003113;28;38559;-75
2022/11/30 05:54:04;;;;;;;25.50;14.20;;;5.40;99.90;;;;;;5002705;28;37186;-75
2022/11/30 05:56:30;;;;;;;25.00;17.93;;;5.30;99.90;;;;;;5005496;28;37155;-75
2022/11/30 05:58:56;;;;;;;30.70;20.47;;;5.20;99.90;;;;;;5008721;28;38563;-75
2022/11/30 06:01:25;;;;;;;23.53;14.90;;;5.10;99.90;;;;;;5006341;28;38324;-76
2022/11/30 06:03:51;;;;;;;14.63;13.23;;;5.10;99.90;;;;;;5006461;28;36473;-76
2022/11/30 06:06:18;;;;;;;15.93;14.00;;;5.10;99.90;;;;;;5010643;28;37600;-76
2022/11/30 06:08:46;;;;;;;16.30;13.27;;;5.10;99.90;;;;;;5005122;28;39774;-75
2022/11/30 06:11:14;;;;;;;23.60;16.07;;;5.10;99.90;;;;;;5005882;28;36679;-75
2022/11/30 06:13:41;;;;;;;14.83;13.33;;;5.00;99.90;;;;;;5002759;28;36322;-75
2022/11/30 06:16:07;;;;;;;18.17;16.17;;;5.00;99.90;;;;;;5003448;28;37519;-75
2022/11/30 06:18:35;;;;;;;37.23;16.73;;;5.00;99.90;;;;;;5003246;28;39357;-75
2022/11/30 06:21:03;;;;;;;21.07;14.27;;;5.00;99.90;;;;;;5001661;28;38126;-75
2022/11/30 06:23:30;;;;;;;42.63;16.30;;;5.00;99.90;;;;;;5020325;28;36454;-75
2022/11/30 06:25:56;;;;;;;18.27;15.30;;;5.00;99.90;;;;;;5010630;28;37073;-76
2022/11/30 06:28:23;;;;;;;26.93;18.30;;;5.00;99.90;;;;;;5000150;28;37863;-75
2022/11/30 06:30:50;;;;;;;19.53;17.47;;;5.00;99.90;;;;;;5001792;28;38884;-75
2022/11/30 06:33:16;;;;;;;36.23;22.93;;;5.00;99.90;;;;;;5005993;28;37530;-76
2022/11/30 06:35:48;;;;;;;14.93;13.43;;;5.00;99.90;;;;;;5008178;28;37087;-76
2022/11/30 06:38:14;;;;;;;18.15;15.00;;;5.10;99.90;;;;;;5013051;28;39621;-75
2022/11/30 06:40:40;;;;;;;16.80;15.07;;;5.20;99.90;;;;;;5009289;28;37232;-76
2022/11/30 06:43:06;;;;;;;29.50;17.77;;;5.10;99.90;;;;;;5004973;28;38667;-76
2022/11/30 06:45:32;;;;;;;18.93;17.07;;;5.10;99.90;;;;;;5008622;28;37399;-74
2022/11/30 06:47:58;;;;;;;28.87;17.03;;;5.20;99.90;;;;;;5009562;28;40065;-73
2022/11/30 06:50:25;;;;;;;34.17;22.93;;;5.20;99.90;;;;;;5009150;28;38300;-73
2022/11/30 06:52:51;;;;;;;21.80;19.60;;;5.20;99.90;;;;;;5009885;28;36336;-74
2022/11/30 06:55:17;;;;;;;17.90;16.07;;;5.30;99.90;;;;;;5011160;28;36200;-74
2022/11/30 06:57:43;;;;;;;19.63;17.63;;;5.30;99.90;;;;;;4997744;28;39443;-74
2022/11/30 07:00:11;;;;;;;16.87;15.17;;;5.30;99.90;;;;;;4995252;28;36737;-73
2022/11/30 07:02:37;;;;;;;28.23;17.53;;;5.30;99.90;;;;;;4996749;28;47324;-73
2022/11/30 07:05:04;;;;;;;20.87;15.80;;;5.30;99.90;;;;;;4997217;28;37948;-74
2022/11/30 07:07:31;;;;;;;18.10;16.30;;;5.30;99.90;;;;;;4999178;28;48932;-73
2022/11/30 07:09:57;;;;;;;16.37;14.67;;;5.30;99.90;;;;;;4996374;28;38330;-74
2022/11/30 07:12:24;;;;;;;18.43;16.63;;;5.40;99.90;;;;;;4996509;28;37757;-74
2022/11/30 07:14:54;;;;;;;17.73;15.97;;;5.40;99.90;;;;;;5001041;28;37182;-73
2022/11/30 07:17:20;;;;;;;19.27;14.73;;;5.40;99.90;;;;;;4998540;28;38813;-74
2022/11/30 07:19:46;;;;;;;23.80;21.30;;;5.40;99.90;;;;;;4995876;28;37796;-74
2022/11/30 07:22:13;;;;;;;23.80;21.30;;;5.50;99.90;;;;;;5013246;28;39057;-74
2022/11/30 07:27:24;;;;;;;24.70;22.00;;;5.60;99.90;;;;;;5000630;28;39068;-74
2022/11/30 07:29:51;;;;;;;22.63;20.30;;;5.60;99.90;;;;;;4998634;28;37481;-74
2022/11/30 07:32:18;;;;;;;23.53;21.13;;;5.60;99.90;;;;;;5010136;28;36714;-75
2022/11/30 07:34:44;;;;;;;21.27;18.53;;;5.60;99.90;;;;;;5002420;28;36922;-74
2022/11/30 07:37:11;;;;;;;27.77;23.43;;;5.60;99.90;;;;;;5006540;28;38604;-74
2022/11/30 07:39:37;;;;;;;43.83;28.70;;;5.60;99.90;;;;;;5005463;28;36889;-73
2022/11/30 07:42:03;;;;;;;28.27;24.30;;;5.60;99.90;;;;;;5002056;28;38404;-74
2022/11/30 07:44:29;;;;;;;28.13;24.07;;;5.70;99.90;;;;;;5000341;28;37188;-75
2022/11/30 07:46:55;;;;;;;19.63;17.63;;;5.70;99.90;;;;;;5001001;28;38273;-74
2022/11/30 07:49:21;;;;;;;23.67;21.17;;;5.70;99.90;;;;;;4996986;28;36970;-75
2022/11/30 07:51:50;;;;;;;21.60;18.97;;;5.60;99.90;;;;;;4998319;28;38570;-75
2022/11/30 07:54:16;;;;;;;25.43;22.73;;;5.70;99.90;;;;;;4999822;28;36360;-76
2022/11/30 07:56:42;;;;;;;18.57;16.67;;;5.60;99.90;;;;;;4998228;28;38172;-75
2022/11/30 07:59:09;;;;;;;18.67;16.70;;;5.60;99.90;;;;;;4999576;28;39081;-75
2022/11/30 08:01:35;;;;;;;20.37;18.27;;;5.60;99.90;;;;;;4992870;28;36833;-76
2022/11/30 08:04:02;;;;;;;26.60;23.77;;;5.60;99.90;;;;;;5000592;28;38471;-75
2022/11/30 08:06:31;;;;;;;24.87;22.33;;;5.70;99.90;;;;;;4994553;28;46768;-76
2022/11/30 08:09:00;;;;;;;22.17;19.87;;;5.80;99.90;;;;;;4996216;28;37483;-75
2022/11/30 08:11:29;;;;;;;23.23;20.63;;;5.80;99.90;;;;;;4996454;28;37688;-75
2022/11/30 08:13:56;;;;;;;20.20;18.03;;;5.80;99.90;;;;;;4996420;28;36372;-75
2022/11/30 08:16:26;;;;;;;21.80;19.30;;;5.80;99.90;;;;;;5010179;28;20165;-75
2022/11/30 08:18:56;;;;;;;21.53;19.27;;;5.80;99.90;;;;;;5002082;28;34595;-76
2022/11/30 08:21:23;;;;;;;22.83;19.73;;;5.80;99.90;;;;;;4996379;28;37408;-74
2022/11/30 08:23:55;;;;;;;21.63;19.00;;;5.80;99.90;;;;;;4996785;28;37817;-75
2022/11/30 08:26:30;;;;;;;24.27;19.55;;;5.80;99.90;;;;;;4998629;28;38693;-75
2022/11/30 08:28:58;;;;;;;26.27;20.60;;;5.80;99.90;;;;;;5001354;28;38120;-75
2022/11/30 08:31:34;;;;;;;22.63;19.73;;;5.90;99.90;;;;;;5000983;28;37779;-75
2022/11/30 08:34:06;;;;;;;30.00;23.40;;;5.90;99.90;;;;;;4997153;28;36265;-75
2022/11/30 08:36:33;;;;;;;21.97;18.83;;;6.00;99.90;;;;;;5001769;28;47162;-75
2022/11/30 08:39:03;;;;;;;64.23;35.13;;;6.00;99.90;;;;;;5002026;28;38970;-75
2022/11/30 08:41:38;;;;;;;20.00;17.63;;;6.00;99.90;;;;;;5002441;28;47187;-75
2022/11/30 08:44:04;;;;;;;21.27;18.43;;;6.10;99.90;;;;;;5010651;28;35703;-75
2022/11/30 08:46:31;;;;;;;21.03;18.77;;;6.20;99.90;;;;;;4994756;28;38381;-75
2022/11/30 08:49:01;;;;;;;21.00;18.80;;;6.20;99.90;;;;;;4999882;28;38402;-76
2022/11/30 08:51:27;;;;;;;19.57;17.53;;;6.20;99.90;;;;;;5008426;28;38707;-75
2022/11/30 08:53:53;;;;;;;21.33;19.07;;;6.20;99.90;;;;;;5015522;28;37993;-75
2022/11/30 08:56:22;;;;;;;19.63;17.37;;;6.20;99.90;;;;;;4997782;28;39498;-80
2022/11/30 08:58:48;;;;;;;19.93;17.73;;;6.20;99.90;;;;;;5000555;28;39338;-76
2022/11/30 09:01:18;;;;;;;19.37;17.27;;;6.20;99.90;;;;;;4998126;28;36471;-75
2022/11/30 09:03:45;;;;;;;19.20;17.20;;;6.20;99.90;;;;;;4997745;28;36894;-76
2022/11/30 09:06:16;;;;;;;27.33;23.83;;;6.30;99.90;;;;;;4999005;28;39139;-75
2022/11/30 09:08:44;;;;;;;23.47;20.97;;;6.30;99.90;;;;;;4995407;28;37425;-75
2022/11/30 09:11:21;;;;;;;22.07;18.90;;;6.40;99.90;;;;;;4995101;28;38239;-76
2022/11/30 09:13:48;;;;;;;20.70;18.53;;;6.50;99.90;;;;;;5001486;28;36075;-76
2022/11/30 09:16:16;;;;;;;22.27;19.53;;;6.50;99.90;;;;;;4999445;28;38467;-76
2022/11/30 09:18:43;;;;;;;21.60;19.40;;;6.50;99.90;;;;;;5006667;28;37425;-77
2022/11/30 09:21:11;;;;;;;25.40;21.93;;;6.60;99.90;;;;;;5002140;28;37880;-76
2022/11/30 09:23:38;;;;;;;23.87;20.87;;;6.70;99.90;;;;;;5004751;28;36983;-76
2022/11/30 09:26:10;;;;;;;21.13;18.57;;;6.80;99.90;;;;;;5000964;28;37435;-76
2022/11/30 09:28:37;;;;;;;22.67;20.15;;;6.80;99.90;;;;;;5001034;28;48547;-75
2022/11/30 09:31:12;;;;;;;26.10;22.47;;;6.80;99.90;;;;;;5008890;28;36711;-75
2022/11/30 09:33:38;;;;;;;22.10;19.07;;;6.80;99.90;;;;;;4999721;28;48014;-76
2022/11/30 09:36:10;;;;;;;25.63;21.80;;;6.80;99.90;;;;;;5002350;28;39147;-76
2022/11/30 09:38:37;;;;;;;22.90;19.97;;;6.80;99.90;;;;;;5006779;28;38464;-75
2022/11/30 09:41:26;;;;;;;21.60;19.30;;;6.80;99.90;;;;;;5000683;28;37780;-75
2022/11/30 09:44:10;;;;;;;23.63;20.13;;;6.90;99.90;;;;;;5000521;28;47994;-75
2022/11/30 09:46:47;;;;;;;20.93;18.43;;;6.90;99.90;;;;;;5003368;28;46093;-75
2022/11/30 09:49:20;;;;;;;26.30;22.13;;;6.90;99.90;;;;;;4993887;28;38260;-76
2022/11/30 09:51:49;;;;;;;;;;;7.00;99.90;;;;;;4996986;28;37716;-76
2022/11/30 09:54:35;;;;;;;22.47;18.63;;;7.10;99.90;;;;;;4996078;28;37068;-76
2022/11/30 09:57:28;;;;;;;27.03;21.67;;;7.20;99.90;;;;;;4999793;28;38868;-75
2022/11/30 10:00:00;;;;;;;25.23;20.35;;;7.10;99.90;;;;;;4997612;28;47034;-75
2022/11/30 10:02:32;;;;;;;28.00;21.47;;;7.10;99.90;;;;;;4998883;28;37207;-76
2022/11/30 10:04:59;;;;;;;29.20;23.63;;;7.10;99.90;;;;;;5000929;28;37332;-75
2022/11/30 10:07:34;;;;;;;31.63;23.40;;;7.20;99.90;;;;;;4997430;28;39313;-75
2022/11/30 10:10:09;;;;;;;27.07;22.97;;;7.30;99.90;;;;;;5002660;28;37580;-75
2022/11/30 10:12:42;;;;;;;31.17;24.93;;;7.50;99.90;;;;;;4999463;28;46134;-75
2022/11/30 10:15:24;;;;;;;29.67;23.20;;;7.70;99.90;;;;;;4999823;28;37531;-76
2022/11/30 10:18:14;;;;;;;32.83;25.42;;;7.70;99.90;;;;;;5001548;28;38610;-74
2022/11/30 10:21:19;;;;;;;31.83;23.67;;;7.70;99.90;;;;;;5000923;28;48757;-75
2022/11/30 10:23:52;;;;;;;26.67;21.07;;;7.80;99.90;;;;;;4999464;28;47533;-75
2022/11/30 10:26:31;;;;;;;30.83;23.70;;;7.80;99.90;;;;;;4999796;28;36272;-75
2022/11/30 10:29:06;;;;;;;28.73;21.40;;;7.80;99.90;;;;;;4997065;28;39340;-76
2022/11/30 10:31:35;;;;;;;26.33;21.47;;;7.80;99.90;;;;;;5000623;28;48535;-76
2022/11/30 10:34:22;;;;;;;30.13;22.17;;;7.80;99.90;;;;;;4995386;28;35566;-74
2022/11/30 10:37:02;;;;;;;29.87;23.87;;;7.80;99.90;;;;;;4996292;28;47471;-75
2022/11/30 10:39:44;;;;;;;35.63;24.77;;;7.80;99.90;;;;;;4992649;28;47117;-75
2022/11/30 10:42:25;;;;;;;42.88;28.13;;;8.00;99.90;;;;;;5014094;28;37181;-75
2022/11/30 10:45:01;;;;;;;30.67;23.87;;;8.10;99.90;;;;;;4998094;28;37680;-73
2022/11/30 10:47:32;;;;;;;31.87;24.57;;;8.10;99.90;;;;;;5001671;28;36283;-73
2022/11/30 10:49:59;;;;;;;26.35;21.65;;;8.20;99.90;;;;;;4995438;28;38864;-72
2022/11/30 10:52:29;;;;;;;25.30;21.03;;;8.20;99.90;;;;;;4997322;28;38136;-73
2022/11/30 10:54:56;;;;;;;29.70;23.30;;;8.30;99.90;;;;;;4994458;28;38064;-76
2022/11/30 10:57:28;;;;;;;30.90;23.07;;;8.20;99.90;;;;;;4995103;28;37873;-73
2022/11/30 10:59:56;;;;;;;28.35;22.90;;;8.30;99.90;;;;;;4997066;28;39136;-73
2022/11/30 11:02:39;;;;;;;29.73;23.07;;;8.50;99.90;;;;;;4998359;28;37390;-73
2022/11/30 11:05:26;;;;;;;31.43;22.97;;;8.60;99.90;;;;;;4995940;28;36349;-73
2022/11/30 11:08:26;;;;;;;35.53;25.13;;;8.60;99.90;;;;;;4993263;28;37599;-73
2022/11/30 11:11:40;;;;;;;33.37;22.87;;;8.70;99.90;;;;;;4990267;28;47770;-75
2022/11/30 11:14:14;;;;;;;34.60;24.00;;;8.50;99.90;;;;;;4956610;28;47766;-75
2022/11/30 11:16:57;;;;;;;38.60;25.70;;;8.60;99.90;;;;;;4987100;28;38267;-72
2022/11/30 11:19:23;;;;;;;;;;;8.80;99.90;;;;;;4997404;28;37540;-73
2022/11/30 11:21:50;;;;;;;35.40;25.90;;;9.20;99.90;;;;;;4996317;28;37350;-73
2022/11/30 11:24:20;;;;;;;37.87;27.53;;;8.90;99.90;;;;;;4999300;28;36988;-73
2022/11/30 11:26:53;;;;;;;32.50;24.07;;;9.10;99.90;;;;;;4996886;28;36758;-73
2022/11/30 11:29:42;;;;;;;33.57;24.87;;;9.20;99.90;;;;;;4991480;28;36441;-74
2022/11/30 11:32:22;;;;;;;33.40;24.50;;;9.00;99.90;;;;;;4992612;28;38652;-74
2022/11/30 11:34:48;;;;;;;30.03;24.00;;;9.20;99.90;;;;;;4993469;28;37117;-74
2022/11/30 11:37:29;;;;;;;36.10;26.47;;;9.30;99.90;;;;;;4997036;28;37528;-73
2022/11/30 11:40:03;;;;;;;35.27;26.47;;;9.40;99.90;;;;;;4993213;28;37509;-73
2022/11/30 11:42:51;;;;;;;37.53;27.93;;;9.50;99.90;;;;;;4995985;28;46860;-72
2022/11/30 11:45:21;;;;;;;32.47;25.90;;;9.60;99.90;;;;;;4996616;28;37863;-73
2022/11/30 11:48:01;;;;;;;36.97;28.23;;;9.50;99.90;;;;;;4996880;28;38302;-73
2022/11/30 11:50:28;;;;;;;34.97;27.30;;;9.40;99.90;;;;;;4995574;28;36183;-73
2022/11/30 11:53:23;;;;;;;37.13;25.97;;;9.50;99.90;;;;;;4995847;28;38903;-73
2022/11/30 11:56:08;;;;;;;38.00;29.37;;;9.70;99.90;;;;;;4994899;28;47307;-73
2022/11/30 11:58:41;;;;;;;39.17;28.27;;;9.80;99.90;;;;;;4995954;28;47994;-72
2022/11/30 12:01:15;;;;;;;35.27;26.90;;;9.90;99.90;;;;;;5000140;28;37056;-72
2022/11/30 12:04:11;;;;;;;40.97;27.83;;;9.90;99.90;;;;;;4995775;28;38470;-73
2022/11/30 12:06:39;;;;;;;36.77;25.93;;;9.90;99.90;;;;;;4988768;28;46578;-73
2022/11/30 12:09:21;;;;;;;37.23;27.57;;;9.80;99.90;;;;;;4992707;28;36916;-73
2022/11/30 12:11:48;;;;;;;31.33;24.43;;;9.70;99.90;;;;;;4995185;28;37457;-73
2022/11/30 12:14:16;;;;;;;30.63;24.47;;;9.60;99.90;;;;;;4993509;28;39267;-72
2022/11/30 12:17:19;;;;;;;37.03;27.27;;;9.50;99.90;;;;;;4995560;28;36973;-73
2022/11/30 12:19:56;;;;;;;39.97;28.47;;;9.40;99.90;;;;;;4996470;28;48619;-74
2022/11/30 12:22:55;;;;;;;38.87;27.67;;;9.40;99.90;;;;;;5001638;28;36476;-73
2022/11/30 12:25:32;;;;;;;40.93;27.47;;;9.50;99.90;;;;;;5000052;28;37848;-73
2022/11/30 12:28:14;;;;;;;39.27;27.00;;;9.70;99.90;;;;;;5007915;28;40245;-74
2022/11/30 12:31:11;;;;;;;34.72;24.60;;;9.70;99.90;;;;;;5008974;28;47181;-74
2022/11/30 12:33:49;;;;;;;36.30;24.27;;;9.80;99.90;;;;;;4992094;28;47050;-75
2022/11/30 12:36:33;;;;;;;26.23;20.43;;;10.00;99.90;;;;;;4995563;28;38408;-74
2022/11/30 12:39:38;;;;;;;29.70;21.07;;;10.00;99.90;;;;;;4999514;28;38414;-73
2022/11/30 12:42:14;;;;;;;28.73;21.13;;;9.90;99.90;;;;;;4962790;28;49258;-73
2022/11/30 12:45:04;;;;;;;31.37;22.67;;;10.00;99.90;;;;;;4994378;28;36932;-73
2022/11/30 12:47:55;;;;;;;26.33;21.10;;;10.10;99.90;;;;;;4965039;28;47285;-73
2022/11/30 12:50:55;;;;;;;29.27;21.53;;;10.40;99.90;;;;;;4991104;28;37188;-74
2022/11/30 12:53:28;;;;;;;29.63;21.53;;;10.30;99.90;;;;;;5014526;28;38009;-74
2022/11/30 12:56:03;;;;;;;30.35;22.48;;;10.40;99.90;;;;;;4998738;28;38611;-74
2022/11/30 12:58:50;;;;;;;25.23;20.13;;;10.50;99.90;;;;;;5000480;28;41254;-74
2022/11/30 13:01:51;;;;;;;28.93;21.50;;;10.50;99.90;;;;;;5002312;28;38354;-74
2022/11/30 13:04:27;;;;;;;26.93;20.67;;;10.50;99.90;;;;;;4997494;28;38194;-74